KAUO/AUO METAR and TAF weather

Enter ICAO airport designator
Station Type Date Time Source
KAUO METAR 2018/12/10 23:56 UTC NOAA

KAUO 102356Z AUTO 32006KT 9SM -RA OVC004 05/04 A3018 RMK AO2 SLP246 P0000 60000 T00500044 10056 20050 52010


Station Type Date Time Source
KAUO Decoded METAR 2018/12/10 23:56 UTC NOAA

Auburn-Opelika Airport, AL, United States (KAUO) 32-37N 085-26W
Dec 10, 2018 - 06:56 PM EST / 2018.12.10 2356 UTC
Wind: from the NW (320 degrees) at 7 MPH (6 KT):0
Visibility: 9 mile(s):0
Sky conditions: overcast
Weather: light rain
Precipitation last hour: A trace
Temperature: 41.0 F (5.0 C)
Dew Point: 39.9 F (4.4 C)
Relative Humidity: 95%
Pressure (altimeter): 30.18 in. Hg (1022 hPa)
Pressure tendency: 0.03 inches (1.0 hPa) higher than three hours ago
ob: KAUO 102356Z AUTO 32006KT 9SM -RA OVC004 05/04 A3018 RMK AO2 SLP246 P0000 60000 T00500044 10056 20050 52010
cycle: 0

Station Type Date Time Source
KAUO TAF UTC NOAA

Error!


Example: see airport list